Love Boat — OT3861 — position and weather

sailwx.info

Track history (hours):
 
Tides and Currents Weather Stations Pressure Air Temp Water Temp Dewpoint Dewpoint Depression Visibility Wind Speed Wind Dir Waves Ship Positions

Love Boat

Last reported at 2015-Mar-31 07:33 UTC. Time now 2015-Mar-31 08:29 UTC.
Position N 51°05' E 004°21'.

Length 110 m.

Type: Ship. MMSI: 205386190.

Date/timePositionNaut miles runAvg speedWind from/ knotsBaromVisibWave heightAir tempDewpointWater temp
2015-Mar-31 07:33N 51°05' E 004°21'0 0.0
2015-Mar-31 06:29N 51°05' E 004°21'0 0.0
2015-Mar-31 04:13N 51°05' E 004°21'0 0.0
2015-Mar-30 23:26N 51°05' E 004°21'0 0.0
2015-Mar-30 20:12N 51°05' E 004°21'0 0.0
2015-Mar-30 17:12N 51°05' E 004°21'0 0.0
2015-Mar-30 16:23N 51°05' E 004°21'0 0.0
2015-Mar-30 15:28N 51°05' E 004°21'2 1.8
2015-Mar-30 14:25N 51°07' E 004°18'3 3.4
2015-Mar-30 13:33N 51°09' E 004°20'5 5.4
2015-Mar-30 12:33N 51°14' E 004°24'5 5.5
2015-Mar-30 11:33N 51°18' E 004°18'3 2.8
2015-Mar-30 10:33N 51°21' E 004°17'4 3.7
2015-Mar-30 09:33N 51°24' E 004°14'3 3.0
2015-Mar-30 08:28N 51°27' E 004°14'3 3.0
2015-Mar-30 07:33N 51°30' E 004°13'8 7.0
2015-Mar-30 06:28N 51°37' E 004°12'17 5.6
2015-Mar-30 03:29N 51°43' E 004°38'5 5.7
2015-Mar-30 02:31N 51°46' E 004°45'7 6.3
2015-Mar-30 01:23N 51°50' E 004°55'6 6.9
2015-Mar-30 00:33N 51°50' E 005°04'7 7.2
2015-Mar-29 23:32N 51°49' E 005°16'6 6.0
2015-Mar-29 22:33N 51°51' E 005°25'50 6.2
2015-Mar-29 14:26N 51°34' E 006°41'13 5.9
2015-Mar-29 12:13N 51°21' E 006°39'5 6.3
2015-Mar-29 11:29N 51°17' E 006°42'4 4.8
2015-Mar-29 10:33N 51°12' E 006°44'5 5.0
2015-Mar-29 09:33N 51°10' E 006°51'15 6.3
2015-Mar-29 07:12N 50°56' E 006°58'5 5.2
2015-Mar-29 06:17N 50°51' E 007°00'  
Track history (hours):
 
Tides and Currents Weather Stations Pressure Air Temp Water Temp Dewpoint Dewpoint Depression Visibility Wind Speed Wind Dir Waves Ship Positions

Love Boat

Last reported at 2015-Mar-31 07:33 UTC. Time now 2015-Mar-31 08:29 UTC.
Position N 51°05' E 004°21'.

Length 110 m.

Type: Ship. MMSI: 205386190.

Date/timePositionNaut miles runAvg speedWind from/ knotsBaromVisibWave heightAir tempDewpointWater temp
2015-Mar-31 07:33N 51°05' E 004°21'0 0.0
2015-Mar-31 06:29N 51°05' E 004°21'0 0.0
2015-Mar-31 04:13N 51°05' E 004°21'0 0.0
2015-Mar-30 23:26N 51°05' E 004°21'0 0.0
2015-Mar-30 20:12N 51°05' E 004°21'0 0.0
2015-Mar-30 17:12N 51°05' E 004°21'0 0.0
2015-Mar-30 16:23N 51°05' E 004°21'0 0.0
2015-Mar-30 15:28N 51°05' E 004°21'2 1.8
2015-Mar-30 14:25N 51°07' E 004°18'3 3.4
2015-Mar-30 13:33N 51°09' E 004°20'5 5.4
2015-Mar-30 12:33N 51°14' E 004°24'5 5.5
2015-Mar-30 11:33N 51°18' E 004°18'3 2.8
2015-Mar-30 10:33N 51°21' E 004°17'4 3.7
2015-Mar-30 09:33N 51°24' E 004°14'3 3.0
2015-Mar-30 08:28N 51°27' E 004°14'3 3.0
2015-Mar-30 07:33N 51°30' E 004°13'8 7.0
2015-Mar-30 06:28N 51°37' E 004°12'17 5.6
2015-Mar-30 03:29N 51°43' E 004°38'5 5.7
2015-Mar-30 02:31N 51°46' E 004°45'7 6.3
2015-Mar-30 01:23N 51°50' E 004°55'6 6.9
2015-Mar-30 00:33N 51°50' E 005°04'7 7.2
2015-Mar-29 23:32N 51°49' E 005°16'6 6.0
2015-Mar-29 22:33N 51°51' E 005°25'50 6.2
2015-Mar-29 14:26N 51°34' E 006°41'13 5.9
2015-Mar-29 12:13N 51°21' E 006°39'5 6.3
2015-Mar-29 11:29N 51°17' E 006°42'4 4.8
2015-Mar-29 10:33N 51°12' E 006°44'5 5.0
2015-Mar-29 09:33N 51°10' E 006°51'15 6.3
2015-Mar-29 07:12N 50°56' E 006°58'5 5.2
2015-Mar-29 06:17N 50°51' E 007°00'  

Dump ship's entire track history